sensor_id;sensor_type;location;lat;lon;timestamp;P1;durP1;ratioP1;P2;durP2;ratioP2
18443;SDS011;9350;53.176;8.194;2024-03-02T00:00:48;11.70;;;7.38;;
18443;SDS011;9350;53.176;8.194;2024-03-02T00:03:17;14.70;;;7.45;;
18443;SDS011;9350;53.176;8.194;2024-03-02T00:05:44;13.30;;;8.02;;
18443;SDS011;9350;53.176;8.194;2024-03-02T00:08:17;13.27;;;7.65;;
18443;SDS011;9350;53.176;8.194;2024-03-02T00:10:49;13.18;;;8.15;;
18443;SDS011;9350;53.176;8.194;2024-03-02T00:13:16;13.82;;;7.95;;
18443;SDS011;9350;53.176;8.194;2024-03-02T00:15:48;14.38;;;7.60;;
18443;SDS011;9350;53.176;8.194;2024-03-02T00:18:19;12.52;;;7.72;;
18443;SDS011;9350;53.176;8.194;2024-03-02T00:20:52;13.20;;;7.80;;
18443;SDS011;9350;53.176;8.194;2024-03-02T00:23:20;13.65;;;7.88;;
18443;SDS011;9350;53.176;8.194;2024-03-02T00:25:48;15.02;;;8.20;;
18443;SDS011;9350;53.176;8.194;2024-03-02T00:28:19;13.68;;;8.73;;
18443;SDS011;9350;53.176;8.194;2024-03-02T00:30:57;16.95;;;8.13;;
18443;SDS011;9350;53.176;8.194;2024-03-02T00:33:27;13.60;;;8.30;;
18443;SDS011;9350;53.176;8.194;2024-03-02T00:35:56;13.43;;;8.40;;
18443;SDS011;9350;53.176;8.194;2024-03-02T00:38:24;14.38;;;8.40;;
18443;SDS011;9350;53.176;8.194;2024-03-02T00:40:52;15.80;;;7.93;;
18443;SDS011;9350;53.176;8.194;2024-03-02T00:46:26;12.00;;;7.72;;
18443;SDS011;9350;53.176;8.194;2024-03-02T00:48:58;13.98;;;7.65;;
18443;SDS011;9350;53.176;8.194;2024-03-02T00:51:26;14.00;;;7.38;;
18443;SDS011;9350;53.176;8.194;2024-03-02T00:53:54;11.98;;;7.60;;
18443;SDS011;9350;53.176;8.194;2024-03-02T00:56:22;14.57;;;7.75;;
18443;SDS011;9350;53.176;8.194;2024-03-02T00:58:49;12.90;;;7.18;;
18443;SDS011;9350;53.176;8.194;2024-03-02T01:01:16;14.07;;;7.78;;
18443;SDS011;9350;53.176;8.194;2024-03-02T01:03:44;12.20;;;7.72;;
18443;SDS011;9350;53.176;8.194;2024-03-02T01:06:12;9.88;;;6.78;;
18443;SDS011;9350;53.176;8.194;2024-03-02T01:08:39;12.48;;;7.43;;
18443;SDS011;9350;53.176;8.194;2024-03-02T01:11:05;12.98;;;6.95;;
18443;SDS011;9350;53.176;8.194;2024-03-02T01:13:32;12.05;;;7.07;;
18443;SDS011;9350;53.176;8.194;2024-03-02T01:15:59;10.35;;;6.80;;
18443;SDS011;9350;53.176;8.194;2024-03-02T01:18:26;15.38;;;7.35;;
18443;SDS011;9350;53.176;8.194;2024-03-02T01:20:53;13.25;;;7.43;;
18443;SDS011;9350;53.176;8.194;2024-03-02T01:23:22;13.05;;;7.55;;
18443;SDS011;9350;53.176;8.194;2024-03-02T01:25:50;10.55;;;6.70;;
18443;SDS011;9350;53.176;8.194;2024-03-02T01:28:17;10.73;;;7.22;;
18443;SDS011;9350;53.176;8.194;2024-03-02T01:30:45;9.48;;;6.78;;
18443;SDS011;9350;53.176;8.194;2024-03-02T01:33:12;11.88;;;6.53;;
18443;SDS011;9350;53.176;8.194;2024-03-02T01:35:39;9.68;;;6.72;;
18443;SDS011;9350;53.176;8.194;2024-03-02T01:38:06;11.18;;;6.70;;
18443;SDS011;9350;53.176;8.194;2024-03-02T01:40:35;12.27;;;6.95;;
18443;SDS011;9350;53.176;8.194;2024-03-02T01:43:03;10.00;;;6.13;;
18443;SDS011;9350;53.176;8.194;2024-03-02T01:45:30;11.23;;;6.93;;
18443;SDS011;9350;53.176;8.194;2024-03-02T01:47:57;12.00;;;7.43;;
18443;SDS011;9350;53.176;8.194;2024-03-02T01:50:25;9.05;;;6.30;;
18443;SDS011;9350;53.176;8.194;2024-03-02T01:52:51;10.30;;;6.47;;
18443;SDS011;9350;53.176;8.194;2024-03-02T01:55:19;11.13;;;6.82;;
18443;SDS011;9350;53.176;8.194;2024-03-02T01:57:47;9.82;;;6.55;;
18443;SDS011;9350;53.176;8.194;2024-03-02T02:00:15;11.23;;;6.72;;
18443;SDS011;9350;53.176;8.194;2024-03-02T02:02:43;10.73;;;6.45;;
18443;SDS011;9350;53.176;8.194;2024-03-02T02:05:10;11.00;;;6.57;;
18443;SDS011;9350;53.176;8.194;2024-03-02T02:07:36;8.80;;;6.05;;
18443;SDS011;9350;53.176;8.194;2024-03-02T02:10:04;14.10;;;6.82;;
18443;SDS011;9350;53.176;8.194;2024-03-02T02:12:32;10.10;;;6.60;;
18443;SDS011;9350;53.176;8.194;2024-03-02T02:15:00;10.27;;;6.18;;
18443;SDS011;9350;53.176;8.194;2024-03-02T02:17:27;9.95;;;6.25;;
18443;SDS011;9350;53.176;8.194;2024-03-02T02:19:54;10.25;;;6.28;;
18443;SDS011;9350;53.176;8.194;2024-03-02T02:22:22;9.25;;;5.75;;
18443;SDS011;9350;53.176;8.194;2024-03-02T02:24:49;12.05;;;6.25;;
18443;SDS011;9350;53.176;8.194;2024-03-02T02:27:15;9.00;;;5.90;;
18443;SDS011;9350;53.176;8.194;2024-03-02T02:29:42;10.98;;;6.38;;
18443;SDS011;9350;53.176;8.194;2024-03-02T02:32:09;10.30;;;7.03;;
18443;SDS011;9350;53.176;8.194;2024-03-02T02:34:35;9.15;;;6.18;;
18443;SDS011;9350;53.176;8.194;2024-03-02T02:37:02;9.73;;;6.20;;
18443;SDS011;9350;53.176;8.194;2024-03-02T02:39:30;11.68;;;6.22;;
18443;SDS011;9350;53.176;8.194;2024-03-02T02:41:57;10.90;;;6.75;;
18443;SDS011;9350;53.176;8.194;2024-03-02T02:44:25;8.40;;;6.10;;
18443;SDS011;9350;53.176;8.194;2024-03-02T02:46:52;9.52;;;6.22;;
18443;SDS011;9350;53.176;8.194;2024-03-02T02:49:19;8.60;;;6.07;;
18443;SDS011;9350;53.176;8.194;2024-03-02T02:51:45;10.13;;;6.18;;
18443;SDS011;9350;53.176;8.194;2024-03-02T02:54:12;10.93;;;6.60;;
18443;SDS011;9350;53.176;8.194;2024-03-02T02:56:40;9.40;;;6.43;;
18443;SDS011;9350;53.176;8.194;2024-03-02T02:59:07;9.95;;;6.20;;
18443;SDS011;9350;53.176;8.194;2024-03-02T03:01:34;10.50;;;6.22;;
18443;SDS011;9350;53.176;8.194;2024-03-02T03:04:00;10.30;;;6.68;;
18443;SDS011;9350;53.176;8.194;2024-03-02T03:06:27;10.88;;;6.72;;
18443;SDS011;9350;53.176;8.194;2024-03-02T03:08:54;11.38;;;6.40;;
18443;SDS011;9350;53.176;8.194;2024-03-02T03:11:21;9.57;;;6.50;;
18443;SDS011;9350;53.176;8.194;2024-03-02T03:13:51;10.95;;;6.53;;
18443;SDS011;9350;53.176;8.194;2024-03-02T03:16:19;9.23;;;5.72;;
18443;SDS011;9350;53.176;8.194;2024-03-02T03:18:46;11.13;;;6.20;;
18443;SDS011;9350;53.176;8.194;2024-03-02T03:21:15;8.75;;;6.32;;
18443;SDS011;9350;53.176;8.194;2024-03-02T03:23:41;10.23;;;6.18;;
18443;SDS011;9350;53.176;8.194;2024-03-02T03:26:08;11.45;;;6.90;;
18443;SDS011;9350;53.176;8.194;2024-03-02T03:28:35;9.50;;;6.03;;
18443;SDS011;9350;53.176;8.194;2024-03-02T03:31:03;12.40;;;6.97;;
18443;SDS011;9350;53.176;8.194;2024-03-02T03:33:31;10.52;;;6.60;;
18443;SDS011;9350;53.176;8.194;2024-03-02T03:35:58;15.00;;;6.97;;
18443;SDS011;9350;53.176;8.194;2024-03-02T03:38:24;9.75;;;6.45;;
18443;SDS011;9350;53.176;8.194;2024-03-02T03:40:51;13.90;;;7.13;;
18443;SDS011;9350;53.176;8.194;2024-03-02T03:43:18;10.57;;;6.72;;
18443;SDS011;9350;53.176;8.194;2024-03-02T03:45:45;9.98;;;6.60;;
18443;SDS011;9350;53.176;8.194;2024-03-02T03:48:13;11.25;;;6.63;;
18443;SDS011;9350;53.176;8.194;2024-03-02T03:50:40;10.73;;;6.95;;
18443;SDS011;9350;53.176;8.194;2024-03-02T03:53:07;10.23;;;6.97;;
18443;SDS011;9350;53.176;8.194;2024-03-02T03:55:34;9.02;;;6.30;;
18443;SDS011;9350;53.176;8.194;2024-03-02T03:58:00;9.48;;;6.38;;
18443;SDS011;9350;53.176;8.194;2024-03-02T04:00:27;11.25;;;7.35;;
18443;SDS011;9350;53.176;8.194;2024-03-02T04:02:54;10.18;;;6.47;;
18443;SDS011;9350;53.176;8.194;2024-03-02T04:05:23;11.27;;;6.75;;
18443;SDS011;9350;53.176;8.194;2024-03-02T04:07:49;10.15;;;7.07;;
18443;SDS011;9350;53.176;8.194;2024-03-02T04:10:16;10.40;;;7.03;;
18443;SDS011;9350;53.176;8.194;2024-03-02T04:12:43;9.50;;;6.53;;
18443;SDS011;9350;53.176;8.194;2024-03-02T04:15:10;11.02;;;6.82;;
18443;SDS011;9350;53.176;8.194;2024-03-02T04:17:36;10.88;;;7.40;;
18443;SDS011;9350;53.176;8.194;2024-03-02T04:20:04;10.80;;;6.97;;
18443;SDS011;9350;53.176;8.194;2024-03-02T04:22:33;10.93;;;6.90;;
18443;SDS011;9350;53.176;8.194;2024-03-02T04:25:01;11.15;;;7.07;;
18443;SDS011;9350;53.176;8.194;2024-03-02T04:27:29;11.32;;;7.22;;
18443;SDS011;9350;53.176;8.194;2024-03-02T04:29:55;9.85;;;6.65;;
18443;SDS011;9350;53.176;8.194;2024-03-02T04:32:22;12.18;;;7.22;;
18443;SDS011;9350;53.176;8.194;2024-03-02T04:34:49;11.90;;;7.07;;
18443;SDS011;9350;53.176;8.194;2024-03-02T04:37:15;10.75;;;7.07;;
18443;SDS011;9350;53.176;8.194;2024-03-02T04:39:44;12.73;;;7.68;;
18443;SDS011;9350;53.176;8.194;2024-03-02T04:42:10;11.68;;;7.40;;
18443;SDS011;9350;53.176;8.194;2024-03-02T04:44:37;12.50;;;6.97;;
18443;SDS011;9350;53.176;8.194;2024-03-02T04:47:04;11.43;;;7.22;;
18443;SDS011;9350;53.176;8.194;2024-03-02T04:49:31;10.77;;;7.10;;
18443;SDS011;9350;53.176;8.194;2024-03-02T04:51:58;10.20;;;6.93;;
18443;SDS011;9350;53.176;8.194;2024-03-02T04:54:25;11.35;;;7.03;;
18443;SDS011;9350;53.176;8.194;2024-03-02T04:56:53;11.82;;;7.53;;
18443;SDS011;9350;53.176;8.194;2024-03-02T04:59:20;12.93;;;7.38;;
18443;SDS011;9350;53.176;8.194;2024-03-02T05:01:47;11.63;;;7.40;;
18443;SDS011;9350;53.176;8.194;2024-03-02T05:04:13;11.05;;;7.72;;
18443;SDS011;9350;53.176;8.194;2024-03-02T05:06:40;13.05;;;7.38;;
18443;SDS011;9350;53.176;8.194;2024-03-02T05:09:07;14.00;;;7.95;;
18443;SDS011;9350;53.176;8.194;2024-03-02T05:11:34;12.20;;;7.55;;
18443;SDS011;9350;53.176;8.194;2024-03-02T05:14:26;12.65;;;7.93;;
18443;SDS011;9350;53.176;8.194;2024-03-02T05:16:53;10.68;;;7.03;;
18443;SDS011;9350;53.176;8.194;2024-03-02T05:19:20;13.85;;;7.45;;
18443;SDS011;9350;53.176;8.194;2024-03-02T05:21:47;11.48;;;6.93;;
18443;SDS011;9350;53.176;8.194;2024-03-02T05:24:14;12.18;;;7.43;;
18443;SDS011;9350;53.176;8.194;2024-03-02T05:26:41;11.95;;;7.60;;
18443;SDS011;9350;53.176;8.194;2024-03-02T05:29:08;12.82;;;7.35;;
18443;SDS011;9350;53.176;8.194;2024-03-02T05:31:36;10.50;;;7.18;;
18443;SDS011;9350;53.176;8.194;2024-03-02T05:34:03;12.73;;;7.72;;
18443;SDS011;9350;53.176;8.194;2024-03-02T05:36:30;12.82;;;7.25;;
18443;SDS011;9350;53.176;8.194;2024-03-02T05:38:57;11.38;;;7.55;;
18443;SDS011;9350;53.176;8.194;2024-03-02T05:41:24;11.80;;;7.30;;
18443;SDS011;9350;53.176;8.194;2024-03-02T05:43:51;13.38;;;8.00;;
18443;SDS011;9350;53.176;8.194;2024-03-02T05:46:18;12.75;;;7.40;;
18443;SDS011;9350;53.176;8.194;2024-03-02T05:48:46;10.40;;;7.05;;
18443;SDS011;9350;53.176;8.194;2024-03-02T05:51:13;8.93;;;6.40;;
18443;SDS011;9350;53.176;8.194;2024-03-02T05:53:40;12.88;;;6.88;;
18443;SDS011;9350;53.176;8.194;2024-03-02T05:56:07;12.15;;;7.75;;
18443;SDS011;9350;53.176;8.194;2024-03-02T05:58:33;10.82;;;6.72;;
18443;SDS011;9350;53.176;8.194;2024-03-02T06:01:14;12.07;;;8.00;;
18443;SDS011;9350;53.176;8.194;2024-03-02T06:03:43;10.75;;;7.35;;
18443;SDS011;9350;53.176;8.194;2024-03-02T06:06:11;11.02;;;7.85;;
18443;SDS011;9350;53.176;8.194;2024-03-02T06:08:38;10.48;;;6.88;;
18443;SDS011;9350;53.176;8.194;2024-03-02T06:11:04;11.75;;;7.13;;
18443;SDS011;9350;53.176;8.194;2024-03-02T06:13:31;12.90;;;7.60;;
18443;SDS011;9350;53.176;8.194;2024-03-02T06:15:58;11.90;;;7.07;;
18443;SDS011;9350;53.176;8.194;2024-03-02T06:18:25;10.70;;;6.32;;
18443;SDS011;9350;53.176;8.194;2024-03-02T06:20:53;11.00;;;7.03;;
18443;SDS011;9350;53.176;8.194;2024-03-02T06:23:21;9.35;;;6.35;;
18443;SDS011;9350;53.176;8.194;2024-03-02T06:25:47;11.50;;;6.93;;
18443;SDS011;9350;53.176;8.194;2024-03-02T06:28:14;11.25;;;7.47;;
18443;SDS011;9350;53.176;8.194;2024-03-02T06:30:41;13.18;;;7.32;;
18443;SDS011;9350;53.176;8.194;2024-03-02T06:33:08;11.23;;;7.03;;
18443;SDS011;9350;53.176;8.194;2024-03-02T06:35:35;10.35;;;7.25;;
18443;SDS011;9350;53.176;8.194;2024-03-02T06:38:01;12.10;;;7.05;;
18443;SDS011;9350;53.176;8.194;2024-03-02T06:40:30;13.13;;;7.45;;
18443;SDS011;9350;53.176;8.194;2024-03-02T06:42:57;11.52;;;7.30;;
18443;SDS011;9350;53.176;8.194;2024-03-02T06:45:23;12.10;;;7.60;;
18443;SDS011;9350;53.176;8.194;2024-03-02T06:47:50;12.73;;;8.32;;
18443;SDS011;9350;53.176;8.194;2024-03-02T06:50:17;14.25;;;7.88;;
18443;SDS011;9350;53.176;8.194;2024-03-02T06:52:44;13.68;;;8.30;;
18443;SDS011;9350;53.176;8.194;2024-03-02T06:55:10;13.23;;;7.80;;
18443;SDS011;9350;53.176;8.194;2024-03-02T06:57:39;12.02;;;7.38;;
18443;SDS011;9350;53.176;8.194;2024-03-02T07:00:06;10.85;;;7.40;;
18443;SDS011;9350;53.176;8.194;2024-03-02T07:02:34;10.77;;;7.57;;
18443;SDS011;9350;53.176;8.194;2024-03-02T07:05:01;13.82;;;7.88;;
18443;SDS011;9350;53.176;8.194;2024-03-02T07:07:28;13.13;;;8.23;;
18443;SDS011;9350;53.176;8.194;2024-03-02T07:09:54;12.73;;;8.10;;
18443;SDS011;9350;53.176;8.194;2024-03-02T07:12:21;12.93;;;7.95;;
18443;SDS011;9350;53.176;8.194;2024-03-02T07:14:49;11.73;;;7.72;;
18443;SDS011;9350;53.176;8.194;2024-03-02T07:17:34;13.57;;;8.30;;
18443;SDS011;9350;53.176;8.194;2024-03-02T07:20:02;12.60;;;8.77;;
18443;SDS011;9350;53.176;8.194;2024-03-02T07:22:29;12.38;;;7.88;;
18443;SDS011;9350;53.176;8.194;2024-03-02T07:24:56;12.88;;;8.38;;
18443;SDS011;9350;53.176;8.194;2024-03-02T07:27:23;13.43;;;8.15;;
18443;SDS011;9350;53.176;8.194;2024-03-02T07:29:51;15.60;;;8.52;;
18443;SDS011;9350;53.176;8.194;2024-03-02T07:32:18;14.82;;;8.93;;
18443;SDS011;9350;53.176;8.194;2024-03-02T07:34:44;15.50;;;8.93;;
18443;SDS011;9350;53.176;8.194;2024-03-02T07:37:11;14.63;;;9.05;;
18443;SDS011;9350;53.176;8.194;2024-03-02T07:39:38;14.73;;;8.35;;
18443;SDS011;9350;53.176;8.194;2024-03-02T07:42:05;16.77;;;9.88;;
18443;SDS011;9350;53.176;8.194;2024-03-02T07:44:32;15.07;;;9.25;;
18443;SDS011;9350;53.176;8.194;2024-03-02T07:47:00;15.60;;;9.88;;
18443;SDS011;9350;53.176;8.194;2024-03-02T07:49:27;16.20;;;9.20;;
18443;SDS011;9350;53.176;8.194;2024-03-02T07:51:54;16.98;;;9.85;;
18443;SDS011;9350;53.176;8.194;2024-03-02T07:54:20;13.02;;;9.27;;
18443;SDS011;9350;53.176;8.194;2024-03-02T07:56:47;16.90;;;9.68;;
18443;SDS011;9350;53.176;8.194;2024-03-02T07:59:14;15.40;;;9.52;;
18443;SDS011;9350;53.176;8.194;2024-03-02T08:01:41;16.00;;;9.52;;
18443;SDS011;9350;53.176;8.194;2024-03-02T08:04:09;15.13;;;9.25;;
18443;SDS011;9350;53.176;8.194;2024-03-02T08:06:36;18.85;;;10.68;;
18443;SDS011;9350;53.176;8.194;2024-03-02T08:09:02;16.13;;;9.73;;
18443;SDS011;9350;53.176;8.194;2024-03-02T08:11:34;20.05;;;9.90;;
18443;SDS011;9350;53.176;8.194;2024-03-02T08:14:02;15.82;;;8.82;;
18443;SDS011;9350;53.176;8.194;2024-03-02T08:16:29;17.15;;;10.25;;
18443;SDS011;9350;53.176;8.194;2024-03-02T08:18:56;16.88;;;9.32;;
18443;SDS011;9350;53.176;8.194;2024-03-02T08:21:24;13.73;;;9.05;;
18443;SDS011;9350;53.176;8.194;2024-03-02T08:23:55;15.85;;;9.25;;
18443;SDS011;9350;53.176;8.194;2024-03-02T08:26:22;14.73;;;9.05;;
18443;SDS011;9350;53.176;8.194;2024-03-02T08:28:49;16.10;;;9.15;;
18443;SDS011;9350;53.176;8.194;2024-03-02T08:31:16;15.38;;;9.70;;
18443;SDS011;9350;53.176;8.194;2024-03-02T08:33:42;14.68;;;9.20;;
18443;SDS011;9350;53.176;8.194;2024-03-02T08:36:09;16.33;;;9.45;;
18443;SDS011;9350;53.176;8.194;2024-03-02T08:38:37;15.75;;;9.75;;
18443;SDS011;9350;53.176;8.194;2024-03-02T08:41:04;14.98;;;9.15;;
18443;SDS011;9350;53.176;8.194;2024-03-02T08:43:31;13.85;;;8.77;;
18443;SDS011;9350;53.176;8.194;2024-03-02T08:45:58;14.90;;;9.20;;
18443;SDS011;9350;53.176;8.194;2024-03-02T08:48:25;15.30;;;8.55;;
18443;SDS011;9350;53.176;8.194;2024-03-02T08:50:51;15.13;;;8.90;;
18443;SDS011;9350;53.176;8.194;2024-03-02T08:53:18;14.32;;;8.07;;
18443;SDS011;9350;53.176;8.194;2024-03-02T08:55:46;14.15;;;8.80;;
18443;SDS011;9350;53.176;8.194;2024-03-02T08:58:13;15.95;;;8.93;;
18443;SDS011;9350;53.176;8.194;2024-03-02T09:00:40;14.60;;;8.15;;
18443;SDS011;9350;53.176;8.194;2024-03-02T09:03:07;13.23;;;8.18;;
18443;SDS011;9350;53.176;8.194;2024-03-02T09:05:34;12.23;;;8.20;;
18443;SDS011;9350;53.176;8.194;2024-03-02T09:08:01;14.32;;;8.38;;
18443;SDS011;9350;53.176;8.194;2024-03-02T09:10:28;14.63;;;8.10;;
18443;SDS011;9350;53.176;8.194;2024-03-02T09:12:56;13.73;;;8.05;;
18443;SDS011;9350;53.176;8.194;2024-03-02T09:15:24;13.70;;;7.32;;
18443;SDS011;9350;53.176;8.194;2024-03-02T09:17:50;10.00;;;6.68;;
18443;SDS011;9350;53.176;8.194;2024-03-02T09:20:17;11.80;;;7.28;;
18443;SDS011;9350;53.176;8.194;2024-03-02T09:22:44;8.18;;;6.15;;
18443;SDS011;9350;53.176;8.194;2024-03-02T09:25:12;11.93;;;6.97;;
18443;SDS011;9350;53.176;8.194;2024-03-02T09:27:39;11.35;;;6.53;;
18443;SDS011;9350;53.176;8.194;2024-03-02T09:30:08;9.27;;;6.35;;
18443;SDS011;9350;53.176;8.194;2024-03-02T09:32:36;12.68;;;6.88;;
18443;SDS011;9350;53.176;8.194;2024-03-02T09:35:03;10.25;;;6.55;;
18443;SDS011;9350;53.176;8.194;2024-03-02T09:37:30;12.95;;;7.35;;
18443;SDS011;9350;53.176;8.194;2024-03-02T09:39:57;14.00;;;7.10;;
18443;SDS011;9350;53.176;8.194;2024-03-02T09:42:24;10.23;;;6.40;;
18443;SDS011;9350;53.176;8.194;2024-03-02T09:44:51;12.35;;;7.00;;
18443;SDS011;9350;53.176;8.194;2024-03-02T09:47:20;9.68;;;6.50;;
18443;SDS011;9350;53.176;8.194;2024-03-02T09:49:47;9.07;;;6.50;;
18443;SDS011;9350;53.176;8.194;2024-03-02T09:52:14;10.85;;;6.68;;
18443;SDS011;9350;53.176;8.194;2024-03-02T09:54:41;11.85;;;7.05;;
18443;SDS011;9350;53.176;8.194;2024-03-02T09:57:08;9.00;;;6.57;;
18443;SDS011;9350;53.176;8.194;2024-03-02T09:59:35;11.35;;;6.32;;
18443;SDS011;9350;53.176;8.194;2024-03-02T10:02:02;8.43;;;6.22;;
18443;SDS011;9350;53.176;8.194;2024-03-02T10:04:33;9.38;;;5.55;;
18443;SDS011;9350;53.176;8.194;2024-03-02T10:07:11;8.20;;;5.35;;
18443;SDS011;9350;53.176;8.194;2024-03-02T10:09:39;7.25;;;5.43;;
18443;SDS011;9350;53.176;8.194;2024-03-02T10:12:06;7.00;;;4.78;;
18443;SDS011;9350;53.176;8.194;2024-03-02T10:14:34;8.10;;;5.10;;
18443;SDS011;9350;53.176;8.194;2024-03-02T10:17:02;7.22;;;4.95;;
18443;SDS011;9350;53.176;8.194;2024-03-02T10:19:29;8.63;;;5.32;;
18443;SDS011;9350;53.176;8.194;2024-03-02T10:21:59;6.70;;;5.13;;
18443;SDS011;9350;53.176;8.194;2024-03-02T10:24:27;5.93;;;4.43;;
18443;SDS011;9350;53.176;8.194;2024-03-02T10:27:01;5.38;;;4.35;;
18443;SDS011;9350;53.176;8.194;2024-03-02T10:29:29;5.45;;;4.28;;
18443;SDS011;9350;53.176;8.194;2024-03-02T10:31:56;7.07;;;4.60;;
18443;SDS011;9350;53.176;8.194;2024-03-02T10:34:24;6.57;;;3.97;;
18443;SDS011;9350;53.176;8.194;2024-03-02T10:36:51;7.63;;;4.07;;
18443;SDS011;9350;53.176;8.194;2024-03-02T10:39:19;5.40;;;4.00;;
18443;SDS011;9350;53.176;8.194;2024-03-02T10:41:49;5.18;;;4.13;;
18443;SDS011;9350;53.176;8.194;2024-03-02T10:44:18;8.00;;;4.68;;
18443;SDS011;9350;53.176;8.194;2024-03-02T10:46:46;6.60;;;4.47;;
18443;SDS011;9350;53.176;8.194;2024-03-02T10:49:15;7.45;;;4.40;;
18443;SDS011;9350;53.176;8.194;2024-03-02T10:51:43;5.60;;;3.72;;
18443;SDS011;9350;53.176;8.194;2024-03-02T10:54:10;5.85;;;3.97;;
18443;SDS011;9350;53.176;8.194;2024-03-02T10:56:39;5.05;;;3.47;;
18443;SDS011;9350;53.176;8.194;2024-03-02T10:59:10;5.10;;;3.60;;
18443;SDS011;9350;53.176;8.194;2024-03-02T11:01:45;5.10;;;3.30;;
18443;SDS011;9350;53.176;8.194;2024-03-02T11:04:15;5.07;;;3.80;;
18443;SDS011;9350;53.176;8.194;2024-03-02T11:06:45;5.22;;;3.47;;
18443;SDS011;9350;53.176;8.194;2024-03-02T11:09:15;3.35;;;3.05;;
18443;SDS011;9350;53.176;8.194;2024-03-02T11:11:48;5.75;;;3.72;;
18443;SDS011;9350;53.176;8.194;2024-03-02T11:14:21;4.32;;;3.20;;
18443;SDS011;9350;53.176;8.194;2024-03-02T11:16:51;4.43;;;3.47;;
18443;SDS011;9350;53.176;8.194;2024-03-02T11:19:19;3.55;;;3.17;;
18443;SDS011;9350;53.176;8.194;2024-03-02T11:21:47;4.45;;;3.20;;
18443;SDS011;9350;53.176;8.194;2024-03-02T11:27:00;5.22;;;3.85;;
18443;SDS011;9350;53.176;8.194;2024-03-02T11:29:45;5.13;;;3.50;;
18443;SDS011;9350;53.176;8.194;2024-03-02T11:32:13;5.78;;;3.60;;
18443;SDS011;9350;53.176;8.194;2024-03-02T11:34:41;4.45;;;3.47;;
18443;SDS011;9350;53.176;8.194;2024-03-02T11:37:11;4.07;;;3.30;;
18443;SDS011;9350;53.176;8.194;2024-03-02T11:39:39;6.03;;;3.75;;
18443;SDS011;9350;53.176;8.194;2024-03-02T11:42:07;4.07;;;3.38;;
18443;SDS011;9350;53.176;8.194;2024-03-02T11:44:35;3.85;;;3.45;;
18443;SDS011;9350;53.176;8.194;2024-03-02T11:47:02;7.60;;;4.13;;
18443;SDS011;9350;53.176;8.194;2024-03-02T11:49:38;4.93;;;3.70;;
18443;SDS011;9350;53.176;8.194;2024-03-02T11:52:07;5.80;;;3.72;;
18443;SDS011;9350;53.176;8.194;2024-03-02T11:54:34;6.75;;;4.22;;
18443;SDS011;9350;53.176;8.194;2024-03-02T11:57:04;5.13;;;3.78;;
18443;SDS011;9350;53.176;8.194;2024-03-02T11:59:33;9.32;;;3.97;;
18443;SDS011;9350;53.176;8.194;2024-03-02T12:02:00;9.18;;;3.95;;
18443;SDS011;9350;53.176;8.194;2024-03-02T12:04:27;5.15;;;4.05;;
18443;SDS011;9350;53.176;8.194;2024-03-02T12:06:56;4.50;;;3.72;;
18443;SDS011;9350;53.176;8.194;2024-03-02T12:09:25;8.38;;;4.38;;
18443;SDS011;9350;53.176;8.194;2024-03-02T12:12:05;5.78;;;4.05;;
18443;SDS011;9350;53.176;8.194;2024-03-02T12:14:35;4.07;;;3.67;;
18443;SDS011;9350;53.176;8.194;2024-03-02T12:17:03;7.82;;;4.47;;
18443;SDS011;9350;53.176;8.194;2024-03-02T12:19:31;6.20;;;3.95;;
18443;SDS011;9350;53.176;8.194;2024-03-02T12:21:58;6.53;;;4.47;;
18443;SDS011;9350;53.176;8.194;2024-03-02T12:24:26;7.85;;;4.97;;
18443;SDS011;9350;53.176;8.194;2024-03-02T12:26:54;6.00;;;4.63;;
18443;SDS011;9350;53.176;8.194;2024-03-02T12:29:22;6.20;;;4.70;;
18443;SDS011;9350;53.176;8.194;2024-03-02T12:31:51;5.80;;;4.35;;
18443;SDS011;9350;53.176;8.194;2024-03-02T12:34:18;6.03;;;4.40;;
18443;SDS011;9350;53.176;8.194;2024-03-02T12:36:45;5.88;;;4.20;;
18443;SDS011;9350;53.176;8.194;2024-03-02T12:39:14;4.88;;;3.85;;
18443;SDS011;9350;53.176;8.194;2024-03-02T12:41:42;6.05;;;4.18;;
18443;SDS011;9350;53.176;8.194;2024-03-02T12:44:09;5.93;;;4.25;;
18443;SDS011;9350;53.176;8.194;2024-03-02T12:46:36;8.90;;;4.35;;
18443;SDS011;9350;53.176;8.194;2024-03-02T12:49:08;5.63;;;4.40;;
18443;SDS011;9350;53.176;8.194;2024-03-02T12:51:37;5.10;;;3.85;;
18443;SDS011;9350;53.176;8.194;2024-03-02T12:54:05;6.63;;;4.20;;
18443;SDS011;9350;53.176;8.194;2024-03-02T12:56:32;6.20;;;3.50;;
18443;SDS011;9350;53.176;8.194;2024-03-02T12:58:59;5.25;;;3.50;;
18443;SDS011;9350;53.176;8.194;2024-03-02T13:01:27;4.15;;;3.47;;
18443;SDS011;9350;53.176;8.194;2024-03-02T13:03:54;6.03;;;3.50;;
18443;SDS011;9350;53.176;8.194;2024-03-02T13:06:24;6.30;;;3.65;;
18443;SDS011;9350;53.176;8.194;2024-03-02T13:08:54;4.05;;;3.17;;
18443;SDS011;9350;53.176;8.194;2024-03-02T13:11:21;5.18;;;3.58;;
18443;SDS011;9350;53.176;8.194;2024-03-02T13:13:49;4.35;;;3.47;;
18443;SDS011;9350;53.176;8.194;2024-03-02T13:16:17;5.07;;;3.33;;
18443;SDS011;9350;53.176;8.194;2024-03-02T13:18:45;5.13;;;3.28;;
18443;SDS011;9350;53.176;8.194;2024-03-02T13:21:12;5.75;;;3.10;;
18443;SDS011;9350;53.176;8.194;2024-03-02T13:23:43;4.32;;;2.92;;
18443;SDS011;9350;53.176;8.194;2024-03-02T13:26:09;6.50;;;3.35;;
18443;SDS011;9350;53.176;8.194;2024-03-02T13:28:37;6.75;;;3.33;;
18443;SDS011;9350;53.176;8.194;2024-03-02T13:31:04;3.28;;;2.97;;
18443;SDS011;9350;53.176;8.194;2024-03-02T13:33:31;3.83;;;3.33;;
18443;SDS011;9350;53.176;8.194;2024-03-02T13:35:58;6.38;;;3.72;;
18443;SDS011;9350;53.176;8.194;2024-03-02T13:38:26;4.82;;;3.70;;
18443;SDS011;9350;53.176;8.194;2024-03-02T13:40:55;14.18;;;3.65;;
18443;SDS011;9350;53.176;8.194;2024-03-02T13:43:22;5.43;;;3.35;;
18443;SDS011;9350;53.176;8.194;2024-03-02T13:45:51;3.85;;;2.92;;
18443;SDS011;9350;53.176;8.194;2024-03-02T13:48:18;3.25;;;2.95;;
18443;SDS011;9350;53.176;8.194;2024-03-02T13:50:45;3.83;;;3.08;;
18443;SDS011;9350;53.176;8.194;2024-03-02T13:53:12;6.55;;;3.78;;
18443;SDS011;9350;53.176;8.194;2024-03-02T13:55:40;4.35;;;3.55;;
18443;SDS011;9350;53.176;8.194;2024-03-02T13:58:09;6.78;;;4.28;;
18443;SDS011;9350;53.176;8.194;2024-03-02T14:00:37;7.75;;;4.57;;
18443;SDS011;9350;53.176;8.194;2024-03-02T14:03:04;4.57;;;3.78;;
18443;SDS011;9350;53.176;8.194;2024-03-02T14:05:32;5.77;;;4.27;;
18443;SDS011;9350;53.176;8.194;2024-03-02T14:07:59;7.25;;;3.97;;
18443;SDS011;9350;53.176;8.194;2024-03-02T14:10:26;4.00;;;3.53;;
18443;SDS011;9350;53.176;8.194;2024-03-02T14:12:54;4.15;;;3.75;;
18443;SDS011;9350;53.176;8.194;2024-03-02T14:15:23;4.72;;;3.78;;
18443;SDS011;9350;53.176;8.194;2024-03-02T14:17:55;4.85;;;3.75;;
18443;SDS011;9350;53.176;8.194;2024-03-02T14:20:21;6.47;;;4.13;;
18443;SDS011;9350;53.176;8.194;2024-03-02T14:22:48;4.07;;;3.63;;
18443;SDS011;9350;53.176;8.194;2024-03-02T14:25:16;5.32;;;3.92;;
18443;SDS011;9350;53.176;8.194;2024-03-02T14:27:44;5.80;;;4.18;;
18443;SDS011;9350;53.176;8.194;2024-03-02T14:30:12;4.68;;;3.70;;
18443;SDS011;9350;53.176;8.194;2024-03-02T14:32:41;4.70;;;3.50;;
18443;SDS011;9350;53.176;8.194;2024-03-02T14:35:08;6.13;;;4.28;;
18443;SDS011;9350;53.176;8.194;2024-03-02T14:37:36;5.65;;;3.83;;
18443;SDS011;9350;53.176;8.194;2024-03-02T14:40:04;8.45;;;4.35;;
18443;SDS011;9350;53.176;8.194;2024-03-02T14:42:34;6.25;;;4.40;;
18443;SDS011;9350;53.176;8.194;2024-03-02T14:45:01;7.45;;;4.82;;
18443;SDS011;9350;53.176;8.194;2024-03-02T14:47:29;7.22;;;5.00;;
18443;SDS011;9350;53.176;8.194;2024-03-02T14:49:59;6.93;;;4.93;;
18443;SDS011;9350;53.176;8.194;2024-03-02T14:52:26;6.38;;;4.32;;
18443;SDS011;9350;53.176;8.194;2024-03-02T14:54:53;6.93;;;4.28;;
18443;SDS011;9350;53.176;8.194;2024-03-02T14:57:20;6.97;;;4.55;;
18443;SDS011;9350;53.176;8.194;2024-03-02T14:59:46;7.93;;;4.88;;
18443;SDS011;9350;53.176;8.194;2024-03-02T15:02:13;7.10;;;5.00;;